Startpagina
METAR-TAF:

METAR-TAF

Vliegvelden :

Nationale Luchthaven Minsk

Minsk, Wit-Rusland

breedte: 53-56N, lengte: 027-38E, hoogte: 234 m

Actueel weer

Dit bericht is 35 minuten geleden gemaakt, om 19:00 UTC
Wind 6 kt uit het westnoordwesten
Temperatuur 10°C
Vochtigheid 100%
Druk 1020 hPa
Zicht 10 km of meer
geen wolken onder 1500 m en geen cumulonimbus

METAR: UMMS 191900Z 30003MPS CAVOK 10/10 Q1020 R31R/CLRD// R31L/////// NOSIG

Tijdstip: 22:35 (19:35 UTC)

Verwachting

Dit bericht is 2 uur en het 33 minuten geleden gemaakt, om 17:02 UTC
Verwachting geldig van 19 om 18 UTC tot 20 om 18 UTC
Wind 10 kt uit het westnoordwesten
Zicht: 3000 m
Verspreide wolken op 1000 ft
mistbanken, nevel
Tijdelijke
van 19 om 18 UTC tot 20 om 07 UTC
Zicht: 0300 m
Verspreide wolken op 200 ft
mist
Wijzigt naar
van 20 om 07 UTC tot 20 om 08 UTC
Wind 4 kt uit variabele richting
Zicht 10 km of meer

TAF: UMMS 191702Z 1918/2018 30005MPS 3000 BCFG BR SCT010 TEMPO 1918/2007 0300 FG SCT002 BECMG 2007/2008 VRB02MPS 9999 NSW

Waarnemingen en weersverwachtingen van meer dan 4000 vliegvelden (METAR en TAF).

De beschikbare stations zijn de gele en rode punten op de kaart.

Ga met uw muis naar het station om de naam te zien.

Klik dan om waarnemingen en weersverwachtingen te zien.

kaart wijzigen: klik op de groene knoppen met een zwart kruis om in te zoomen, op de groene knop met een streepje om uit te zoomen of op de groene pijlen voor aangrenzende kaarten.


METAR-TAF: